• Join FlightAware (Why Join?)
  • Login
  • US Flag 
06:01PM EDT


 

Airport Tracker/Info


-or-


 

Live Flight TrackerFlight Track Log ✈ AAY863 ✈ 01-Jun-2014 ✈ KCID - KPIE

Flight Track Log - Related Links

Times and Time Zones

All times are in EDT time to prevent confusion due to time zone crossing. See the AAY863 flight status page for this flight to view local times or setup timezone preferences in your user account.

Time Position Orientation Groundspeed Altitude Reporting Facility
EDT Latitude Longitude Course Direction KTS MPH feet Rate Location/Type
05:42PM 41.8681 -91.8267 137° Southeast 181 208 4,300  Level Chicago Center
05:43PM 41.8281 -91.8919 231° Southwest 235 270 6,200 2,220 Climbing Chicago Center
05:44PM 41.7642 -91.8406 149° Southeast 267 307 9,000 2,220 Climbing Chicago Center
05:45PM 41.6983 -91.7769 144° Southeast 291 335 10,900 1,740 Climbing Chicago Center
05:46PM 41.6089 -91.6769 140° Southeast 354 407 12,700 1,920 Climbing Chicago Center
05:47PM 41.2794 -91.3323 137° Southeast  Level FlightAware Approximate
05:47PM 41.5250 -91.5828 140° Southeast 386 444 14,900  Level Chicago Center
05:48PM 41.1745 -91.2013 137° Southeast  Level FlightAware Approximate
05:48PM 41.4394 -91.4858 140° Southeast 400 460 17,000  Level Chicago Center
05:50PM 41.3522 -91.3861 139° Southeast 411 473 19,100 1,740 Climbing Chicago Center
05:51PM 41.2586 -91.2817 140° Southeast 431 496 20,700 1,560 Climbing Chicago Center
05:52PM 41.1644 -91.1742 139° Southeast 442 509 22,400 1,560 Climbing Chicago Center
05:53PM 41.0469 -91.0442 140° Southeast 456 525 24,000 720 Climbing Chicago Center
05:54PM 40.9450 -90.9389 142° Southeast 464 534 24,000  Level Chicago Center
05:55PM 40.8406 -90.8408 145° Southeast 464 534 24,100 720 Climbing Chicago Center
05:56PM 40.7375 -90.7417 144° Southeast 463 533 25,600 1,500 Climbing Chicago Center
05:57PM 40.6331 -90.6417 144° Southeast 463 533 27,300 1,860 Climbing Chicago Center
05:58PM 40.5114 -90.5261 144° Southeast 455 524 29,500 1,560 Climbing Chicago Center
05:59PM 40.4122 -90.4331 144° Southeast 444 511 30,600 960 Climbing Chicago Center
06:00PM 40.3111 -90.3378 144° Southeast 447 514 31,600 780 Climbing Chicago Center
06:01PM 40.2122 -90.2439 144° Southeast 446 513 32,300 660 Climbing Chicago Center
06:02PM 40.1103 -90.1489 145° Southeast 448 516 33,000 300 Climbing Chicago Center
06:03PM 40.0081 -90.0536 144° Southeast 451 519 33,000  Level Chicago Center
06:04PM 39.8872 -89.9406 144° Southeast 449 517 33,000  Level Chicago Center
06:05PM 39.7856 -89.8481 145° Southeast 449 517 33,000  Level Chicago Center
06:06PM 39.6847 -89.7544 144° Southeast 448 516 33,000  Level Chicago Center
06:07PM 39.5842 -89.6622 145° Southeast 446 513 33,000  Level Chicago Center
06:08PM 39.4836 -89.5689 144° Southeast 446 513 33,000  Level Chicago Center
06:09PM 39.3819 -89.4753 145° Southeast 447 514 33,000  Level Chicago Center
06:10PM 39.2581 -89.3653 145° Southeast 450 518 33,000  Level Chicago Center
06:11PM 39.1561 -89.2717 145° Southeast 450 518 33,000  Level Chicago Center
06:12PM 39.0528 -89.1803 146° Southeast 451 519 33,000  Level Chicago Center
06:13PM 38.9750 -89.1108 145° Southeast 450 518 33,000  Level Indianapolis Center
06:14PM 38.9092 -89.0508 145° Southeast 451 519 33,000  Level Kansas City Center
06:15PM 38.8081 -88.9594 145° Southeast 441 507 33,000  Level Kansas City Center
06:16PM 38.7069 -88.8689 145° Southeast 440 506 33,000  Level Kansas City Center
06:17PM 38.5881 -88.7642 145° Southeast 441 507 33,000  Level Kansas City Center
06:18PM 38.4767 -88.6669 146° Southeast 445 512 33,000  Level Kansas City Center
06:19PM 38.3806 -88.5856 146° Southeast 444 511 33,000  Level Kansas City Center
06:20PM 38.2786 -88.4958 145° Southeast 444 511 33,000  Level Kansas City Center
06:21PM 38.1742 -88.4064 146° Southeast 445 512 33,000  Level Kansas City Center
06:22PM 38.0517 -88.2967 145° Southeast 446 513 33,000  Level Kansas City Center
06:23PM 37.9503 -88.2086 146° Southeast 443 510 33,000  Level Kansas City Center
06:24PM 37.8467 -88.1200 146° Southeast 444 511 33,000  Level Kansas City Center
06:25PM 37.7422 -88.0297 146° Southeast 449 517 33,000  Level Kansas City Center
06:27PM 37.5919 -87.9014 146° Southeast 450 518 33,000  Level Indianapolis Center
06:28PM 37.4858 -87.8092 145° Southeast 453 521 33,000  Level Indianapolis Center
06:29PM 37.3792 -87.7197 146° Southeast 455 524 33,000  Level Indianapolis Center
06:30PM 37.2903 -87.6039 134° Southeast 453 521 33,000  Level Memphis Center
06:31PM 37.2317 -87.4581 117° Southeast 464 534 33,000  Level Memphis Center
06:32PM 37.1592 -87.2881 118° Southeast 464 534 33,000  Level Memphis Center
06:33PM 37.0958 -87.1422 119° Southeast 466 536 33,000  Level Memphis Center
06:34PM 37.0378 -86.9939 116° Southeast 466 536 33,000  Level Memphis Center
06:35PM 36.9669 -86.8536 122° Southeast 473 544 33,000  Level Memphis Center
06:36PM 36.8728 -86.7339 134° Southeast 475 547 33,000  Level Memphis Center
06:37PM 36.7825 -86.6111 133° Southeast 475 547 33,000  Level Memphis Center
06:38PM 36.7092 -86.4686 123° Southeast 477 549 33,000  Level Memphis Center
06:39PM 36.6192 -86.3447 132° Southeast 477 549 33,000  Level Memphis Center
06:40PM 36.5139 -86.2428 142° Southeast 475 547 33,000  Level Memphis Center
06:41PM 36.3997 -86.1586 149° Southeast 472 543 33,000  Level Memphis Center
06:42PM 36.2856 -86.0733 149° Southeast 472 543 33,000  Level Memphis Center
06:43PM 36.1375 -86.0267 166° South 469 540 33,000  Level Memphis Center
06:44PM 36.0108 -85.9925 168° South 463 533 33,000  Level Memphis Center
06:45PM 35.8861 -85.9583 167° South 459 528 33,000  Level Memphis Center
06:46PM 35.7589 -85.9233 167° South 458 527 33,000  Level Memphis Center
06:47PM 35.6336 -85.8892 168° South 459 528 33,000  Level Memphis Center
06:48PM 35.5197 -85.8569 167° South 458 527 33,000  Level Memphis Center
06:49PM 35.3703 -85.8172 168° South 458 527 33,000  Level Memphis Center
06:50PM 35.2467 -85.7831 167° South 458 527 33,000  Level Memphis Center
06:51PM 35.1231 -85.7506 168° South 458 527 33,000  Level Memphis Center
06:52PM 34.9997 -85.7161 167° South 458 527 33,000  Level Memphis Center
06:53PM 34.8519 -85.6689 165° South 459 528 33,000  Level Atlanta Center
06:54PM 34.7272 -85.6311 166° South 459 528 33,000  Level Atlanta Center
06:55PM 34.6047 -85.5908 165° South 454 522 33,000  Level Atlanta Center
06:56PM 34.4842 -85.5558 167° South 454 522 33,000  Level Atlanta Center
06:57PM 34.3489 -85.5131 165° South 454 522 33,000  Level Atlanta Center
06:58PM 34.2264 -85.4758 166° South 454 522 33,000  Level Atlanta Center
06:59PM 34.1036 -85.4361 165° South 454 522 33,000  Level Atlanta Center
07:00PM 33.9831 -85.3992 166° South 454 522 33,000  Level Atlanta Center
07:01PM 33.8581 -85.3622 166° South 454 522 33,000  Level Atlanta Center
07:02PM 33.7353 -85.3253 166° South 454 522 33,000  Level Atlanta Center
07:03PM 33.6125 -85.2861 165° South 454 522 33,000  Level Atlanta Center
07:04PM 33.4897 -85.2494 166° South 454 522 33,000  Level Atlanta Center
07:05PM 33.3692 -85.2128 166° South 454 522 33,000  Level Atlanta Center
07:06PM 33.2464 -85.1764 166° South 454 522 33,000  Level Atlanta Center
07:07PM 33.1256 -85.1378 165° South 454 522 33,000  Level Atlanta Center
07:08PM 33.0050 -85.0989 165° South 449 517 33,000  Level Atlanta Center
07:09PM 32.8842 -85.0653 167° South 449 517 33,000  Level Atlanta Center
07:10PM 32.7739 -85.0244 163° South 454 522 33,000  Level Atlanta Center
07:11PM 32.6531 -84.9886 166° South 453 521 33,000  Level Atlanta Center
07:12PM 32.5219 -84.9478 165° South 453 521 33,000  Level Atlanta Center
07:13PM 32.4011 -84.9147 167° South 459 528 33,000  Level Atlanta Center
07:14PM 32.2761 -84.8767 166° South 454 522 33,000  Level Atlanta Center
07:15PM 32.1511 -84.8458 168° South 454 522 33,000  Level Atlanta Center
07:17PM 31.9000 -84.7669 165° South 465 535 33,000  Level Jacksonville Center
07:18PM 31.7753 -84.7303 166° South 465 535 33,000  Level Jacksonville Center
07:19PM 31.6547 -84.6936 165° South 465 535 33,000  Level Jacksonville Center
07:20PM 31.5300 -84.6597 167° South 465 535 33,000  Level Jacksonville Center
07:21PM 31.4094 -84.6161 163° South 465 535 33,000  Level Jacksonville Center
07:22PM 31.2892 -84.5603 158° South 465 535 33,000  Level Jacksonville Center
07:23PM 31.1686 -84.5047 158° South 465 535 33,000  Level Jacksonville Center
07:24PM 31.0503 -84.4494 158° South 465 535 33,000  Level Jacksonville Center
07:25PM 30.9300 -84.3967 159° South 466 536 33,000  Level Jacksonville Center
07:26PM 30.8200 -84.3439 158° South 466 536 33,000  Level Jacksonville Center
07:27PM 30.7014 -84.2914 159° South 466 536 33,000  Level Jacksonville Center
07:28PM 30.5808 -84.2367 159° South 466 536 33,000  Level Jacksonville Center
07:29PM 30.4647 -84.1844 159° South 466 536 33,000 -60 Level Jacksonville Center
07:30PM 30.3481 -84.1322 159° South 458 527 32,900  Descending Jacksonville Center
07:31PM 30.2275 -84.0778 159° South 458 527 33,000  Climbing Jacksonville Center
07:32PM 30.1050 -84.0233 159° South 464 534 33,000 -60 Level Jacksonville Center
07:33PM 29.9822 -83.9742 161° South 464 534 32,900  Descending Jacksonville Center
07:34PM 29.8572 -83.9439 168° South 464 534 33,000  Climbing Jacksonville Center
07:35PM 29.7322 -83.9019 164° South 464 534 32,900  Descending Jacksonville Center
07:36PM 29.6117 -83.8458 158° South 464 534 33,000  Climbing Jacksonville Center
07:37PM 29.4908 -83.7897 158° South 464 534 33,000 -960 Level Jacksonville Center
07:38PM 29.3681 -83.7314 158° South 469 540 31,100 -2,100 Descending Jacksonville Center
07:39PM 29.2411 -83.6731 158° South 475 547 28,800 -2,400 Descending Jacksonville Center
07:40PM 29.1183 -83.6200 159° South 480 552 26,300 -2,400 Descending Jacksonville Center
07:41PM 29.0017 -83.5717 160° South 468 539 24,000 -2,340 Descending Jacksonville Center
07:42PM 28.9019 -83.4950 146° Southeast 445 512 21,700 -2,280 Descending Jacksonville Center
07:43PM 28.8167 -83.4044 137° Southeast 427 491 19,500 -2,100 Descending Jacksonville Center
07:44PM 28.7336 -83.3236 140° Southeast 413 475 17,500 -2,220 Descending Jacksonville Center
07:46PM 28.5833 -83.1667 137° Southeast 357 411 13,100 -1,560 Descending Tampa TRACON
07:47PM 28.5167 -83.1000 139° Southeast 321 369 13,000 -60 Descending Tampa TRACON
07:48PM 28.4500 -83.0333 139° Southeast 315 362 13,000 -420 Level Tampa TRACON
07:49PM 28.3833 -82.9667 139° Southeast 307 353 12,300 -1,140 Descending Tampa TRACON
07:50PM 28.3450 -82.9164 131° Southeast 290 334 11,000 -1,500 Descending Miami Center
07:51PM 28.2886 -82.8544 136° Southeast 285 328 9,500 -1,740 Descending Miami Center
07:52PM 28.2333 -82.7936 136° Southeast 279 321 7,500 -1,980 Descending Miami Center
07:53PM 28.1797 -82.7347 136° Southeast 273 314 5,500 -1,740 Descending Miami Center
07:54PM 28.1169 -82.7011 155° Southeast 253 291 4,000 -1,500 Descending Miami Center
07:55PM 28.0544 -82.6825 165° South 244 281 2,500 -1,380 Descending Miami Center
07:56PM 28.0039 -82.6653 163° South 214 246 1,300 -900 Descending Miami Center
07:57PM 27.9611 -82.6883 205° Southwest 190 219 700 -540 Descending Miami Center
07:58PM 27.9161 -82.6997 193° South 173 199 300 -420 Descending Miami Center